| time (UTC) | temp F | wind direction | speed knots | gust knots | rain 1hr in | rain 24hr in | rain mn in | humidity % | barometer mb |
| 20260503184506 | 70 | 223 | 1.7 | 7.8 | 0.00 | 0.01 | 0.01 | 44 | 1018.8 |
| 20260503183006 | 69 | 161 | 1.7 | 5.2 | 0.00 | 0.01 | 0.01 | 43 | 1018.9 |
| 20260503181505 | 69 | 229 | 1.7 | 8.7 | 0.00 | 0.01 | 0.01 | 49 | 1019.2 |
| 20260503180005 | 67 | 242 | 1.7 | 7.0 | 0.00 | 0.01 | 0.01 | 47 | 1019.3 |
| 20260503173005 | 66 | 67 | 1.7 | 4.3 | 0.00 | 0.01 | 0.01 | 50 | 1019.4 |
| 20260503171504 | 65 | 165 | 1.7 | 6.1 | 0.00 | 0.01 | 0.01 | 49 | 1019.6 |
| 20260503100118 | 45 | 52 | 0.0 | 0.0 | 0.00 | 0.49 | 0.01 | 92 | 1017.9 |
| 20260503051505 | 51 | 52 | 0.0 | 0.0 | 0.00 | 0.55 | 0.00 | 92 | 1016.2 |
| 20260503044505 | 51 | 52 | 0.0 | 0.0 | 0.00 | 0.55 | 0.00 | 92 | 1016.0 |
| 20260503043006 | 51 | 52 | 0.0 | 0.0 | 0.00 | 0.55 | 0.00 | 92 | 1016.0 |
| 20260503034505 | 52 | 56 | 0.0 | 0.0 | 0.00 | 0.55 | 0.55 | 91 | 1015.9 |
| 20260503033006 | 52 | 56 | 0.0 | 0.0 | 0.00 | 0.55 | 0.55 | 91 | 1015.7 |
| 20260503031505 | 52 | 56 | 0.0 | 0.0 | 0.00 | 0.55 | 0.55 | 91 | 1015.4 |
| 20260503024505 | 51 | 56 | 0.0 | 0.0 | 0.00 | 0.55 | 0.55 | 90 | 1014.8 |
| 20260503023005 | 51 | 56 | 0.0 | 0.0 | 0.00 | 0.55 | 0.55 | 90 | 1014.7 |
| 20260503021505 | 51 | 56 | 0.0 | 0.0 | 0.00 | 0.55 | 0.55 | 89 | 1014.6 |
| 20260503014505 | 52 | 56 | 0.0 | 0.0 | 0.00 | 0.55 | 0.55 | 88 | 1014.1 |
| 20260503013005 | 52 | 56 | 0.0 | 0.0 | 0.00 | 0.55 | 0.55 | 88 | 1013.9 |
| 20260503011505 | 53 | 56 | 0.0 | 0.0 | 0.00 | 0.55 | 0.55 | 88 | 1013.9 |
| 20260503010005 | 54 | 56 | 0.0 | 0.0 | 0.00 | 0.55 | 0.55 | 87 | 1013.6 |
| 20260503004505 | 55 | 56 | 0.0 | 0.0 | 0.00 | 0.55 | 0.55 | 87 | 1013.3 |
| 20260503001506 | 56 | 56 | 0.0 | 0.0 | 0.00 | 0.55 | 0.55 | 86 | 1012.7 |
| 20260503000005 | 56 | 56 | 0.0 | 0.0 | 0.00 | 0.55 | 0.55 | 86 | 1012.6 |
| 20260502234505 | 56 | 56 | 0.0 | 0.9 | 0.00 | 0.55 | 0.55 | 86 | 1012.5 |
| 20260502231505 | 56 | 56 | 0.9 | 3.5 | 0.00 | 0.55 | 0.55 | 84 | 1012.4 |
| 20260502230005 | 56 | 17 | 0.9 | 2.6 | 0.00 | 0.55 | 0.55 | 84 | 1012.1 |
| 20260502224505 | 56 | 15 | 1.7 | 4.3 | 0.00 | 0.55 | 0.55 | 85 | 1012.3 |
| 20260502223005 | 56 | 65 | 1.7 | 4.3 | 0.00 | 0.55 | 0.55 | 85 | 1012.4 |
| 20260502221504 | 56 | 66 | 1.7 | 4.3 | 0.00 | 0.55 | 0.55 | 86 | 1012.2 |
| 20260502220007 | 56 | 80 | 1.7 | 4.3 | 0.00 | 0.55 | 0.55 | 86 | 1012.1 |
| 20260502213004 | 55 | 355 | 2.6 | 7.0 | 0.00 | 0.55 | 0.55 | 88 | 1012.0 |
| 20260502211505 | 55 | 5 | 1.7 | 5.2 | 0.00 | 0.55 | 0.55 | 89 | 1012.0 |
| 20260502210005 | 55 | 92 | 2.6 | 7.8 | 0.00 | 0.55 | 0.55 | 89 | 1011.7 |
| 20260502204502 | 55 | 90 | 2.6 | 7.8 | 0.00 | 0.55 | 0.55 | 89 | 1012.0 |
| 20260502203001 | 55 | 5 | 2.6 | 8.7 | 0.00 | 0.55 | 0.55 | 89 | 1012.1 |
| 20260502201504 | 55 | 348 | 2.6 | 7.0 | 0.00 | 0.55 | 0.55 | 89 | 1012.3 |
| 20260502200006 | 55 | 9 | 2.6 | 7.0 | 0.00 | 0.55 | 0.55 | 89 | 1012.2 |
| 20260502194504 | 55 | 36 | 2.6 | 9.6 | 0.00 | 0.55 | 0.55 | 89 | 1012.3 |
| 20260502193001 | 54 | 11 | 3.5 | 8.7 | 0.00 | 0.55 | 0.55 | 89 | 1012.4 |
| 20260502191503 | 54 | 128 | 2.6 | 10.4 | 0.00 | 0.55 | 0.55 | 90 | 1012.2 |
| 20260502190005 | 54 | 46 | 3.5 | 10.4 | 0.00 | 0.56 | 0.55 | 91 | 1012.0 |